San Francisco, California
Current Conditions -  °F | °C
As of 9:56 PM on Tuesday 21 Oct 2014 (Local Time) from KSFO Reporting Station
Few Clouds Few Clouds  
Wind Chill: 17°   Ceiling: Unl
Heat Index: 17°   Visibility: 10mi
Dew Point: 14°   Wind: 13mph
Humidity: 81%   Direction: 290°WNW
Pressure: 30.05"   Gusts: NA
Location:  37.78°N, 122.42°W
Report Text: KSFO 220456Z 29011KT 10SM FEW010 17/14 A3005 RMK AO2 SLP174 T01720139 $
Loading
Personal Weather Stations






























Interactive Weather Map
Tropical Storm Tracking
New forecast layout! Learn more

10-Day Weather Forecast

Advertisements
Track Severe Weather on mobile